Flight Track Log - Related Links

Times and Time Zones

All times are in EDT time to prevent confusion due to time zone crossing. See the EGF3681 flight status page for this flight to view local times or setup timezone preferences in your user account.

Time Position Orientation Groundspeed Altitude Reporting Facility
EDT Latitude Longitude Course Direction KTS MPH feet Rate Location/Type
Sun 10:51:20 PM 42.0000 -87.9333 85° East 166 191 1,900  Level Chicago TRACON
Sun 10:52:21 PM 42.0167 -87.8833 66° East 241 277 4,200 2,275 Climbing Chicago TRACON
Sun 10:53:00 PM 41.8124 -87.5895 95° East  Level Estimated
Sun 10:53:53 PM 42.0014 -87.7411 98° East 277 319 7,700  Level Chicago Center
Sun 10:54:00 PM 41.7558 -87.4841 90° East  Level Estimated
Sun 10:54:54 PM 41.9936 -87.6394 96° East 273 314 10,100  Level Chicago Center
Sun 10:55:00 PM 41.6991 -87.3789 90° East  Level Estimated
Sun 10:55:54 PM 41.9833 -87.5275 97° East 297 342 12,000  Level Chicago Center
Sun 10:56:00 PM 41.6423 -87.2739 85° East  Level Estimated
Sun 10:56:55 PM 41.9742 -87.4072 96° East 319 367 14,200  Level Chicago Center
Sun 10:57:56 PM 41.9628 -87.2831 97° East 333 383 15,500 1,180 Climbing Chicago Center
Sun 10:58:57 PM 41.9511 -87.1458 96° East 364 419 16,600 1,082 Climbing Chicago Center
Sun 10:59:58 PM 41.9428 -87.0003 94° East 389 448 17,700 885 Climbing Chicago Center
Sun 11:00:59 PM 41.9469 -86.8497 88° East 404 465 18,400 885 Climbing Chicago Center
Sun 11:02:00 PM 41.9500 -86.6975 88° East 410 472 19,500 1,377 Climbing Chicago Center
Sun 11:03:01 PM 41.9514 -86.5489 89° East 416 479 21,200 1,686 Climbing Chicago Center
Sun 11:04:01 PM 41.8850 -86.4308 127° Southeast 403 464 22,900 893 Climbing Chicago Center
Sun 11:05:02 PM 41.7775 -86.3083 140° Southeast 423 487 23,000 49 Climbing Chicago Center
Sun 11:06:03 PM 41.6853 -86.2022 139° Southeast 437 503 23,000  Level Chicago Center
Sun 11:07:04 PM 41.5928 -86.0969 140° Southeast 440 506 23,000  Level Chicago Center
Sun 11:08:05 PM 41.4981 -85.9886 139° Southeast 447 514 23,000  Level Chicago Center
Sun 11:09:05 PM 41.4039 -85.8800 139° Southeast 453 521 23,000  Level Chicago Center
Sun 11:10:06 PM 41.3078 -85.7717 140° Southeast 457 526 23,000  Level Chicago Center
Sun 11:11:07 PM 41.2119 -85.6617 139° Southeast 460 529 23,000  Level Chicago Center
Sun 11:12:08 PM 41.1169 -85.5544 140° Southeast 454 522 23,000  Level Chicago Center
Sun 11:13:08 PM 41.0219 -85.4486 140° Southeast 451 519 23,000  Level Chicago Center
Sun 11:14:09 PM 40.9289 -85.3456 140° Southeast 443 510 23,000 -344 Level Chicago Center
Sun 11:15:10 PM 40.8383 -85.2403 139° Southeast 438 504 22,300 -1,488 Descending Chicago Center
Sun 11:16:10 PM 40.7269 -85.1156 140° Southeast 439 505 20,000 -2,132 Descending Chicago Center
Sun 11:17:11 PM 40.6392 -85.0172 140° Southeast 424 488 18,000 -1,714 Descending Chicago Center
Sun 11:18:02 PM 40.5714 -84.9453 141° Southeast 399 459 16,800 -1,600 Descending Indianapolis Center
Sun 11:18:26 PM 40.5350 -84.9064 141° Southeast 390 449 16,000 -2,066 Descending Indianapolis Center
Sun 11:19:03 PM 40.4817 -84.8483 140° Southeast 393 452 14,700 -2,000 Descending Indianapolis Center
Sun 11:19:26 PM 40.4503 -84.8158 142° Southeast 393 452 14,000 -1,800 Descending Indianapolis Center
Sun 11:20:03 PM 40.3944 -84.7711 149° Southeast 383 441 12,900 -1,574 Descending Indianapolis Center
Sun 11:20:27 PM 40.3631 -84.7469 150° Southeast 361 415 12,400 -1,475 Descending Indianapolis Center
Sun 11:21:04 PM 40.3114 -84.7044 148° Southeast 359 413 11,400 -1,500 Descending Indianapolis Center
Sun 11:21:27 PM 40.2817 -84.6822 150° Southeast 341 392 10,900 -900 Descending Indianapolis Center
Sun 11:22:04 PM 40.2317 -84.6425 149° Southeast 340 391 10,500 -492 Descending Indianapolis Center
Sun 11:22:28 PM 40.2025 -84.6178 147° Southeast 328 377 10,400 -393 Descending Indianapolis Center
Sun 11:23:05 PM 40.1558 -84.5811 149° Southeast 329 379 10,100 -984 Descending Indianapolis Center
Sun 11:23:29 PM 40.1269 -84.5572 148° Southeast 287 330 9,400 -1,574 Descending Indianapolis Center
Sun 11:24:06 PM 40.0900 -84.5278 149° Southeast 292 336 8,500 -1,700 Descending Indianapolis Center
Sun 11:24:29 PM 40.0608 -84.5067 151° Southeast 269 310 7,700 -1,900 Descending Indianapolis Center
Sun 11:25:06 PM 40.0253 -84.4775 148° Southeast 275 316 6,600 -1,770 Descending Indianapolis Center
Sun 11:25:30 PM 39.9972 -84.4539 147° Southeast 270 311 5,900 -1,475 Descending Indianapolis Center
Sun 11:26:07 PM 39.9636 -84.4283 150° Southeast 269 310 5,100 -1,700 Descending Indianapolis Center
Sun 11:26:30 PM 39.9369 -84.4075 149° Southeast 252 290 4,200 -1,300 Descending Indianapolis Center
Sun 11:27:07 PM 39.9039 -84.3825 150° Southeast 259 298 3,800 -984 Descending Indianapolis Center
Sun 11:27:31 PM 39.8783 -84.3639 151° Southeast 242 278 3,200 -885 Descending Indianapolis Center
Sun 11:28:08 PM 39.8544 -84.3356 138° Southeast 247 284 2,900 -984 Descending Indianapolis Center
Sun 11:28:32 PM 39.8611 -84.3089 72° East 147 169 2,200 -1,000 Descending Indianapolis Center
Sun 11:29:08 PM 39.8708 -84.2908 55° Northeast 173 199 1,900 -600 Descending Indianapolis Center
Sun 11:29:32 PM 39.8800 -84.2714 58° Northeast 110 127 1,600 -492 Descending Indianapolis Center
Sun 11:30:09 PM 39.8928 -84.2506 51° Northeast 147 169 1,400 -324 Descending Indianapolis Center

Login

Don't have an account? Register now (free) for customized features, flight alerts, and more!